Data for 10/24/2014

Time Sea-Level Adjusted Pressure Absolute Pressure Temperature Relative Humidity Dew Point   
(mb) (inHg) (mb) (inHg) (C) (F) (%) (C) (F)
00:05 1017 30.03 846 24.98 11.8 53.3 47 0.8 33.5
00:10 1017 30.03 846 24.98 11.8 53.3 47 0.8 33.4
00:15 1016 30 846 24.98 11.8 53.3 46 0.6 33.2
00:20 1016 30 846 24.98 11.9 53.4 46 0.9 33.6
00:25 1017 30.03 846 24.98 12 53.7 46 1 33.7
00:30 1017 30.03 846 24.98 12.1 53.8 47 1.2 34.2
00:35 1017 30.03 846 24.98 12.1 53.8 45 0.7 33.3
00:40 1017 30.03 846 24.98 12.2 53.9 45 0.7 33.2
00:45 1017 30.03 846 24.98 12.3 54.1 45 0.8 33.4
00:50 1017 30.03 846 24.98 12.2 54 45 0.7 33.3
00:55 1017 30.03 846 24.98 12.2 54 45 0.7 33.3
01:00 1017 30.03 846 24.98 12.3 54.2 45 0.8 33.5
01:05 1017 30.03 846 24.98 12.3 54.2 45 0.8 33.5
01:10 1017 30.03 846 24.98 12.4 54.3 45 0.8 33.5
01:15 1017 30.03 846 24.98 12.4 54.4 45 0.9 33.6
01:20 1017 30.03 846 24.98 12.4 54.3 45 0.9 33.7
01:25 1017 30.03 846 24.98 12.4 54.3 45 1 33.8
01:30 1017 30.03 846 24.98 12.4 54.2 45 0.9 33.7
01:35 1017 30.03 846 24.98 12.3 54.2 45 0.9 33.6
01:40 1017 30.03 846 24.98 12.4 54.2 45 0.8 33.4
01:45 1017 30.03 846 24.98 12.4 54.3 45 0.9 33.6
01:50 1017 30.03 846 24.98 12.5 54.4 45 0.9 33.6
01:55 1017 30.03 846 24.98 12.4 54.3 46 1.1 34
02:00 1017 30.03 846 24.98 12.3 54.2 46 1.1 34
02:05 1017 30.03 846 24.98 12.2 54 46 1 33.9
02:10 1017 30.03 846 24.98 12.2 54 46 1.1 33.9
02:15 1017 30.03 846 24.98 12.2 54 46 1.1 34
02:20 1017 30.03 846 24.98 12.2 54 46 1 33.8
02:25 1017 30.03 846 24.98 12.3 54.1 45 0.8 33.5
02:30 1017 30.03 846 24.98 12.4 54.3 45 0.9 33.6
02:35 1017 30.03 846 24.98 12.4 54.2 45 0.9 33.7
02:40 1017 30.03 846 24.98 12.2 54 47 1.2 34.2
02:45 1017 30.03 846 24.98 12 53.6 47 1.2 34.1
02:50 1017 30.03 846 24.98 11.9 53.4 47 1.1 33.9
02:55 1017 30.03 846 24.98 11.7 53.1 49 1.3 34.4
03:00 1017 30.03 846 24.98 11.2 52.2 52 1.9 35.4
03:05 1017 30.03 846 24.98 10.6 51 53 1.4 34.5
03:10 1017 30.03 846 24.98 10.7 51.3 53 1.5 34.7
03:15 1017 30.03 846 24.98 10.6 51.1 54 1.7 35
03:20 1017 30.03 846 24.98 10.2 50.3 54 1.4 34.6
03:25 1017 30.03 846 24.98 9.8 49.7 55 1.4 34.4
03:30 1017 30.03 846 24.98 10.3 50.5 54 1.5 34.7
03:35 1017 30.03 846 24.98 10.5 50.8 54 1.5 34.7
03:40 1017 30.03 846 24.98 10.5 50.8 55 1.8 35.2
03:45 1017 30.03 846 24.98 10.3 50.5 55 1.6 34.9
03:50 1017 30.03 846 24.98 10.2 50.4 55 1.7 35
03:55 1017 30.03 847 25.01 10.6 51 54 1.8 35.2
04:00 1017 30.03 847 25.01 10.7 51.2 53 1.6 34.9
04:05 1018 30.06 847 25.01 10.9 51.6 52 1.5 34.7
04:10 1018 30.06 847 25.01 11 51.8 52 1.7 35
04:15 1018 30.06 847 25.01 11 51.8 52 1.6 35
04:20 1018 30.06 847 25.01 11.1 52 53 2 35.6
04:25 1018 30.06 847 25.01 11 51.9 53 1.9 35.4
04:30 1018 30.06 847 25.01 10.8 51.5 53 1.7 35
04:35 1018 30.06 847 25.01 10.8 51.4 53 1.7 35.1
04:40 1018 30.06 847 25.01 10.7 51.3 53 1.7 35.1
04:45 1018 30.06 847 25.01 10.8 51.5 53 1.7 35.1
04:50 1018 30.06 847 25.01 10.8 51.4 55 2.1 35.7
04:55 1018 30.06 847 25.01 10.4 50.7 56 2 35.7
05:00 1018 30.06 847 25.01 10.6 51 55 1.9 35.4
05:05 1018 30.06 847 25.01 10.7 51.2 54 1.7 35.1
05:10 1018 30.06 847 25.01 10.8 51.5 54 1.8 35.3
05:15 1018 30.06 847 25.01 10.8 51.5 54 1.9 35.5
05:20 1018 30.06 847 25.01 10.8 51.5 53 1.7 35.1
05:25 1018 30.06 847 25.01 10.9 51.6 54 2 35.5
05:30 1018 30.06 847 25.01 10.8 51.5 54 2 35.7
05:35 1018 30.06 847 25.01 10.9 51.6 54 2.1 35.8
05:40 1018 30.06 847 25.01 10.9 51.5 55 2.1 35.8
05:45 1018 30.06 847 25.01 10.8 51.4 55 2.2 36
05:50 1018 30.06 847 25.01 10.8 51.4 55 2.1 35.8
05:55 1018 30.06 847 25.01 10.8 51.4 55 2 35.7
06:00 1018 30.06 847 25.01 10.8 51.4 55 2 35.7
06:05 1018 30.06 847 25.01 10.7 51.3 55 2.1 35.7
06:10 1018 30.06 847 25.01 10.7 51.3 55 2 35.6
06:15 1018 30.06 847 25.01 10.7 51.2 56 2.2 36
06:20 1018 30.06 847 25.01 10.7 51.2 56 2.2 36
06:25 1018 30.06 847 25.01 10.7 51.2 57 2.5 36.4
06:30 1018 30.06 848 25.04 10.7 51.2 55 2.2 35.9
06:35 1018 30.06 848 25.04 10.7 51.3 56 2.3 36.2
06:40 1018 30.06 848 25.04 10.8 51.4 55 2.2 35.9
06:45 1019 30.09 848 25.04 10.7 51.3 55 2.1 35.9
06:50 1019 30.09 848 25.04 10.8 51.4 55 2.1 35.8
06:55 1019 30.09 848 25.04 10.7 51.3 55 2.1 35.7
07:00 1019 30.09 848 25.04 10.7 51.3 55 2.1 35.8
07:05 1019 30.09 848 25.04 10.8 51.4 55 2.1 35.8
07:10 1019 30.09 848 25.04 10.7 51.3 55 2.1 35.8
07:15 1019 30.09 848 25.04 10.8 51.4 56 2.3 36.1
07:20 1019 30.09 848 25.04 10.8 51.4 55 2.1 35.8
07:25 1019 30.09 848 25.04 10.8 51.5 55 2.2 36
07:30 1019 30.09 848 25.04 10.8 51.5 55 2.2 35.9
07:35 1019 30.09 848 25.04 10.9 51.6 55 2.2 35.9
07:40 1019 30.09 849 25.07 10.9 51.6 55 2.2 35.9
07:45 1019 30.09 849 25.07 10.9 51.7 55 2.2 36
07:50 1019 30.09 849 25.07 11 51.7 55 2.4 36.3
07:55 1019 30.09 849 25.07 11 51.7 55 2.3 36.2
08:00 1019 30.09 849 25.07 11 51.8 56 2.5 36.5
08:05 1020 30.12 849 25.07 11 51.7 56 2.6 36.7
08:10 1020 30.12 849 25.07 10.9 51.6 57 2.7 36.9
08:15 1020 30.12 849 25.07 10.7 51.3 60 3.2 37.8
08:20 1020 30.12 849 25.07 10.6 51.1 61 3.4 38
08:25 1020 30.12 849 25.07 10.4 50.8 61 3.2 37.7
08:30 1020 30.12 849 25.07 10.3 50.5 61 3.1 37.6
08:35 1020 30.12 849 25.07 10.3 50.5 61 3.3 37.9
08:40 1020 30.12 849 25.07 10.2 50.4 62 3.4 38
08:45 1020 30.12 849 25.07 10.3 50.5 63 3.7 38.6
08:50 1020 30.12 849 25.07 10.4 50.7 62 3.4 38.1
08:55 1020 30.12 849 25.07 10.3 50.5 63 3.5 38.3
09:00 1020 30.12 849 25.07 10.3 50.5 63 3.6 38.5
09:05 1020 30.12 849 25.07 10.4 50.8 63 3.8 38.9
09:10 1020 30.12 849 25.07 10.6 51.1 62 3.7 38.7
09:15 1020 30.12 850 25.1 10.7 51.3 62 3.7 38.7
09:20 1020 30.12 850 25.1 10.7 51.2 61 3.6 38.4
09:25 1020 30.12 850 25.1 10.6 51.1 61 3.5 38.3
09:30 1020 30.12 850 25.1 10.7 51.2 61 3.4 38.1
09:35 1020 30.12 849 25.07 10.8 51.4 60 3.3 38
09:40 1020 30.12 849 25.07 10.8 51.4 60 3.3 38
09:45 1020 30.12 850 25.1 10.9 51.5 61 3.7 38.6
09:50 1020 30.12 850 25.1 10.6 51 65 4.4 40
09:55 1021 30.15 850 25.1 10.3 50.6 67 4.4 40
10:00 1021 30.15 850 25.1 10.4 50.6 65 4.2 39.6
10:05 1021 30.15 850 25.1 10.2 50.4 68 4.6 40.2
10:10 1021 30.15 850 25.1 10.1 50.2 68 4.6 40.2
10:15 1021 30.15 850 25.1 9.9 49.8 69 4.5 40.1
10:20 1021 30.15 850 25.1 9.9 49.7 71 5 40.9
10:25 1021 30.15 850 25.1 9.9 49.8 73 5.3 41.5
10:30 1021 30.15 850 25.1 9.6 49.3 76 5.6 42
10:35 1021 30.15 850 25.1 9.5 49.1 73 4.9 40.8
10:40 1021 30.15 850 25.1 9.3 48.8 73 4.8 40.6
10:45 1021 30.15 850 25.1 9 48.3 77 5.2 41.3
10:50 1021 30.15 850 25.1 8.9 48.1 77 5.2 41.3
10:55 1021 30.15 850 25.1 8.9 48 76 4.9 40.7
11:00 1021 30.15 850 25.1 9 48.1 75 4.8 40.7
11:05 1021 30.15 850 25.1 9.1 48.4 74 4.8 40.6
11:10 1021 30.15 850 25.1 9.1 48.3 76 5 41
11:15 1021 30.15 850 25.1 9.3 48.7 71 4.4 39.9
11:20 1021 30.15 850 25.1 9.5 49 72 4.8 40.6
11:25 1021 30.15 850 25.1 9.4 48.9 72 4.6 40.2
11:30 1021 30.15 850 25.1 9.3 48.8 71 4.4 39.9
11:35 1021 30.15 850 25.1 9.2 48.5 71 4.3 39.7
11:40 1021 30.15 850 25.1 9.3 48.7 70 4.1 39.4
11:45 1021 30.15 850 25.1 9.4 48.8 70 4.3 39.7
11:50 1021 30.15 850 25.1 9.6 49.3 68 4.1 39.4
11:55 1021 30.15 850 25.1 9.7 49.4 69 4.3 39.8
12:00 1021 30.15 850 25.1 9.8 49.6 70 4.6 40.2
12:05 1021 30.15 850 25.1 9.8 49.6 71 4.7 40.5
12:10 1021 30.15 850 25.1 10 50 68 4.5 40
12:15 1021 30.15 850 25.1 10.1 50.1 67 4.3 39.8
12:20 1021 30.15 850 25.1 9.9 49.9 66 4 39.1
12:25 1021 30.15 850 25.1 9.7 49.5 66 3.7 38.7
12:30 1021 30.15 850 25.1 9.9 49.8 66 3.9 39
12:35 1021 30.15 850 25.1 10 49.9 66 4 39.2
12:40 1021 30.15 850 25.1 9.8 49.7 64 3.4 38.1
12:45 1021 30.15 850 25.1 9.8 49.6 65 3.5 38.3
12:50 1021 30.15 850 25.1 9.8 49.6 65 3.5 38.3
12:55 1021 30.15 850 25.1 9.7 49.5 64 3.3 38
13:00 1021 30.15 850 25.1 9.6 49.3 64 3.2 37.8
13:05 1021 30.15 850 25.1 9.7 49.4 63 3.1 37.5
13:10 1021 30.15 850 25.1 9.7 49.4 63 3.1 37.5
13:15 1021 30.15 850 25.1 9.7 49.5 63 2.9 37.3
13:20 1021 30.15 850 25.1 9.7 49.4 63 3.1 37.5
13:25 1021 30.15 850 25.1 9.7 49.5 63 3 37.3
13:30 1021 30.15 850 25.1 9.8 49.7 63 3.1 37.6
13:35 1021 30.15 850 25.1 9.8 49.6 63 3.1 37.6
13:40 1021 30.15 850 25.1 9.7 49.4 64 3.1 37.7
13:45 1021 30.15 850 25.1 9.7 49.4 64 3.1 37.6
13:50 1021 30.15 850 25.1 9.7 49.5 63 3.1 37.6
13:55 1021 30.15 850 25.1 9.8 49.7 63 3.1 37.6
14:00 1021 30.15 850 25.1 10 50 62 3.1 37.5
14:05 1021 30.15 850 25.1 10 50 63 3.4 38.2
14:10 1021 30.15 850 25.1 10 50 63 3.4 38.1
14:15 1021 30.15 850 25.1 9.8 49.6 64 3.3 38
14:20 1021 30.15 850 25.1 9.8 49.7 64 3.3 37.9
14:25 1021 30.15 850 25.1 9.8 49.6 63 3.1 37.6
14:30 1021 30.15 850 25.1 9.7 49.4 63 3 37.4
14:35 1021 30.15 850 25.1 9.5 49.2 64 3.1 37.6
14:40 1021 30.15 850 25.1 9.7 49.4 63 3.1 37.6
14:45 1021 30.15 850 25.1 9.8 49.6 62 2.9 37.2
14:50 1021 30.15 850 25.1 9.7 49.5 62 2.9 37.2
14:55 1021 30.15 850 25.1 9.9 49.7 62 2.9 37.3
15:00 1021 30.15 850 25.1 10 50.1 62 3.1 37.6
15:05 1021 30.15 850 25.1 10.2 50.4 60 2.9 37.2
15:10 1021 30.15 850 25.1 10.3 50.5 60 3 37.3
15:15 1021 30.15 850 25.1 10.2 50.4 61 3 37.5
15:20 1021 30.15 850 25.1 10.1 50.1 61 2.8 37.1
15:25 1021 30.15 850 25.1 9.9 49.8 61 2.8 37
15:30 1021 30.15 850 25.1 9.7 49.4 62 2.7 36.9
15:35 1021 30.15 850 25.1 9.7 49.5 62 2.8 37.1
15:40 1021 30.15 850 25.1 9.9 49.8 62 3 37.4
15:45 1021 30.15 850 25.1 9.8 49.6 63 3.2 37.7
15:50 1021 30.15 850 25.1 9.5 49.1 66 3.4 38.2
15:55 1021 30.15 850 25.1 9.3 48.8 66 3.3 38
16:00 1021 30.15 850 25.1 9.5 49.1 66 3.4 38.2
16:05 1021 30.15 850 25.1 9.5 49 67 3.7 38.7
16:10 1021 30.15 850 25.1 9 48.2 68 3.5 38.3
16:15 1021 30.15 850 25.1 8.8 47.9 69 3.6 38.4
16:20 1021 30.15 850 25.1 9.1 48.4 68 3.6 38.4
16:25 1021 30.15 850 25.1 9.3 48.7 68 3.7 38.6
16:30 1020 30.12 850 25.1 9 48.2 69 3.7 38.7
16:35 1020 30.12 850 25.1 8.7 47.7 70 3.6 38.4
16:40 1020 30.12 850 25.1 8.8 47.8 69 3.4 38.2
16:45 1020 30.12 850 25.1 8.8 47.9 69 3.6 38.5
16:50 1020 30.12 849 25.07 8.9 48 69 3.5 38.3
16:55 1020 30.12 849 25.07 8.8 47.9 69 3.5 38.3
17:00 1020 30.12 849 25.07 8.8 47.8 69 3.5 38.3
17:05 1020 30.12 849 25.07 8.8 47.8 70 3.6 38.5
17:10 1020 30.12 849 25.07 8.8 47.8 70 3.7 38.6
17:15 1020 30.12 849 25.07 8.8 47.8 70 3.7 38.6
17:20 1020 30.12 850 25.1 8.7 47.7 71 3.7 38.6
17:25 1020 30.12 850 25.1 8.7 47.7 71 3.7 38.7
17:30 1020 30.12 850 25.1 8.7 47.7 71 3.7 38.7
17:35 1021 30.15 850 25.1 8.7 47.7 71 3.8 38.8
17:40 1020 30.12 850 25.1 8.6 47.6 71 3.7 38.6
17:45 1021 30.15 850 25.1 8.6 47.5 71 3.6 38.4
17:50 1021 30.15 850 25.1 8.6 47.5 71 3.7 38.7
17:55 1021 30.15 850 25.1 8.7 47.6 70 3.6 38.5
18:00 1020 30.12 850 25.1 8.8 47.8 70 3.7 38.6
18:05 1020 30.12 850 25.1 8.7 47.6 71 3.7 38.6
18:10 1020 30.12 850 25.1 8.5 47.4 72 3.9 39
18:15 1020 30.12 850 25.1 8.4 47.1 73 3.8 38.8
18:20 1020 30.12 850 25.1 8.3 47 73 3.9 39
18:25 1020 30.12 850 25.1 8.3 46.9 73 3.8 38.8
18:30 1020 30.12 850 25.1 8.2 46.8 73 3.7 38.7
18:35 1020 30.12 850 25.1 8.2 46.8 72 3.6 38.5
18:40 1020 30.12 850 25.1 8.4 47.1 71 3.5 38.2
18:45 1020 30.12 850 25.1 8.5 47.3 71 3.6 38.5
18:50 1020 30.12 850 25.1 8.5 47.2 72 3.7 38.7
18:55 1020 30.12 849 25.07 8.4 47.1 74 4 39.2
19:00 1020 30.12 849 25.07 8.3 46.9 76 4.3 39.7
19:05 1020 30.12 849 25.07 8.1 46.6 77 4.3 39.7
19:10 1020 30.12 849 25.07 7.9 46.2 78 4.3 39.7
19:15 1020 30.12 849 25.07 7.7 45.9 79 4.3 39.7
19:20 1020 30.12 849 25.07 7.6 45.6 81 4.6 40.3
19:25 1020 30.12 849 25.07 7.6 45.7 80 4.4 39.9
19:30 1020 30.12 849 25.07 7.5 45.4 80 4.3 39.7
19:35 1020 30.12 849 25.07 7.3 45.2 81 4.3 39.7
19:40 1020 30.12 849 25.07 7.2 45 81 4.2 39.5
19:45 1020 30.12 849 25.07 7.3 45.1 80 4.2 39.5
19:50 1020 30.12 849 25.07 7.2 44.9 82 4.2 39.6
19:55 1020 30.12 849 25.07 7 44.6 82 4.1 39.4
20:00 1020 30.12 849 25.07 7 44.6 82 4.1 39.4
20:05 1020 30.12 849 25.07 6.9 44.4 82 4 39.3
20:10 1020 30.12 849 25.07 6.9 44.4 81 3.9 39.1
20:15 1020 30.12 849 25.07 6.7 44.1 81 3.8 38.8
20:20 1020 30.12 849 25.07 6.8 44.2 81 3.8 38.8
20:25 1020 30.12 849 25.07 6.7 44 82 3.8 38.8
20:30 1020 30.12 849 25.07 6.6 43.8 83 3.9 39
20:35 1020 30.12 850 25.1 6.6 43.9 83 3.9 39
20:40 1020 30.12 850 25.1 6.6 43.8 82 3.7 38.7
20:45 1020 30.12 850 25.1 6.4 43.6 82 3.6 38.5
20:50 1020 30.12 850 25.1 6.2 43.2 82 3.3 38
20:55 1020 30.12 850 25.1 5.8 42.5 84 3.3 38
21:00 1020 30.12 850 25.1 5.6 42 84 3 37.4
21:05 1020 30.12 850 25.1 5.3 41.6 86 3.1 37.6
21:10 1020 30.12 850 25.1 5.2 41.4 85 2.9 37.2
21:15 1020 30.12 850 25.1 5.2 41.3 87 3.1 37.6
21:20 1020 30.12 850 25.1 5.2 41.4 88 3.3 38
21:25 1020 30.12 850 25.1 5.5 41.9 86 3.4 38.1
21:30 1020 30.12 850 25.1 5.6 42 85 3.2 37.7
21:35 1020 30.12 850 25.1 5.6 42 86 3.4 38.2
21:40 1020 30.12 850 25.1 5.8 42.4 86 3.6 38.5
21:45 1020 30.12 850 25.1 6 42.7 86 3.8 38.8
21:50 1021 30.15 850 25.1 6 42.8 85 3.6 38.5
21:55 1020 30.12 850 25.1 5.8 42.4 83 3.1 37.6
22:00 1021 30.15 850 25.1 5.3 41.6 84 2.8 37
22:05 1020 30.12 850 25.1 5.1 41.1 84 2.6 36.7
22:10 1020 30.12 850 25.1 5.4 41.6 80 2.2 35.9
22:15 1020 30.12 850 25.1 4.8 40.6 83 2.1 35.7
22:20 1020 30.12 850 25.1 3.9 39.1 86 1.7 35.1
22:25 1020 30.12 850 25.1 3.9 39.1 89 2.3 36.1
22:30 1020 30.12 850 25.1 4.8 40.6 84 2.3 36.1
22:35 1020 30.12 850 25.1 5 40.9 86 2.8 37
22:40 1020 30.12 850 25.1 5.3 41.5 87 3.3 37.9
22:45 1020 30.12 850 25.1 5.2 41.3 88 3.4 38.1
22:50 1020 30.12 850 25.1 5.2 41.3 88 3.4 38
22:55 1020 30.12 850 25.1 5.2 41.3 86 3.1 37.5
23:00 1020 30.12 850 25.1 5.1 41.2 84 2.7 36.8
23:05 1020 30.12 850 25.1 4.6 40.3 87 2.7 36.8
23:10 1020 30.12 850 25.1 4.3 39.8 88 2.5 36.4
23:15 1020 30.12 850 25.1 4.3 39.8 87 2.4 36.3
23:20 1020 30.12 850 25.1 4.5 40.1 86 2.4 36.4
23:25 1020 30.12 850 25.1 4.6 40.3 86 2.6 36.6
23:30 1020 30.12 850 25.1 4.9 40.7 85 2.6 36.7
23:35 1020 30.12 850 25.1 5.2 41.4 84 2.7 36.9
23:40 1020 30.12 850 25.1 5.3 41.6 81 2.3 36.1
23:45 1020 30.12 850 25.1 5 41 82 2.1 35.8
23:50 1020 30.12 850 25.1 4.8 40.7 82 2.1 35.7
23:55 1020 30.12 850 25.1 4.7 40.4 84 2.1 35.9
24:00 1020 30.12 850 25.1 4.9 40.9 82 2.1 35.7